Time;durP1;ratioP1;P1;durP2;ratioP2;P2;SDS_P1;SDS_P2;PMS_P1;PMS_P2;Temp;Humidity;BMP_temperature;BMP_pressure;BME280_temperature;BME280_humidity;BME280_pressure;Samples;Min_cycle;Max_cycle;Signal;HPM_P1;HPM_P2
2022/03/27 00:00:45;;;;;;;10.70;9.80;;;;;;;9.69;78.98;101650.38;5110190;28;20211;-80
2022/03/27 00:03:11;;;;;;;10.83;9.90;;;;;;;9.68;79.73;101644.31;5108518;28;20631;-79
2022/03/27 00:05:37;;;;;;;14.50;9.70;;;;;;;9.69;79.46;101645.19;5109254;28;20297;-79
2022/03/27 00:08:04;;;;;;;10.33;9.43;;;;;;;9.64;79.61;101632.13;5106196;28;20217;-80
2022/03/27 00:11:23;;;;;;;9.80;9.00;;;;;;;9.69;79.70;101635.63;5104481;28;20235;-77
2022/03/27 00:13:19;;;;;;;10.00;9.10;;;;;;;9.70;79.17;101657.38;5102806;28;20200;-78
2022/03/27 00:15:45;;;;;;;11.07;10.13;;;;;;;9.68;79.60;101664.31;5102324;28;20203;-79
2022/03/27 00:18:12;;;;;;;10.00;8.80;;;;;;;9.67;79.13;101654.72;5100001;28;20201;-78
2022/03/27 00:20:39;;;;;;;11.87;10.77;;;;;;;9.67;79.06;101662.53;5098829;28;20721;-80
2022/03/27 00:23:05;;;;;;;12.67;11.57;;;;;;;9.71;79.06;101659.97;5097175;28;20200;-79
2022/03/27 00:25:33;;;;;;;13.67;12.37;;;;;;;9.71;79.35;101649.56;5090101;28;20597;-80
2022/03/27 00:28:00;;;;;;;13.40;12.10;;;;;;;9.74;79.11;101661.72;5089952;28;20221;-79
2022/03/27 00:30:26;;;;;;;13.53;12.17;;;;;;;9.74;79.20;101665.19;5090348;28;20298;-80
2022/03/27 00:32:53;;;;;;;12.27;11.27;;;;;;;9.74;78.96;101666.94;5089897;28;20303;-78
2022/03/27 00:35:19;;;;;;;13.73;12.40;;;;;;;9.74;78.37;101667.81;5090629;28;20318;-79
2022/03/27 00:37:47;;;;;;;12.60;11.60;;;;;;;9.82;77.32;101688.69;5090692;28;20276;-79
2022/03/27 00:40:15;;;;;;;13.43;10.83;;;;;;;9.82;76.77;101714.78;5103048;28;20220;-78
2022/03/27 00:42:43;;;;;;;11.73;10.67;;;;;;;9.82;77.00;101709.56;5101042;28;20200;-79
2022/03/27 00:45:10;;;;;;;11.43;10.30;;;;;;;9.81;76.97;101713.06;5110280;28;20272;-78
2022/03/27 00:47:36;;;;;;;13.83;11.67;;;;;;;9.83;76.23;101732.19;5110050;28;20238;-78
2022/03/27 00:50:03;;;;;;;12.40;11.30;;;;;;;9.85;76.27;101735.66;5110070;28;20280;-79
2022/03/27 00:52:29;;;;;;;13.33;11.43;;;;;;;9.83;76.50;101731.28;5110407;28;20238;-78
2022/03/27 00:54:56;;;;;;;12.77;11.50;;;;;;;9.83;76.15;101741.72;5110565;28;20199;-79
2022/03/27 00:57:22;;;;;;;12.97;11.87;;;;;;;9.81;76.72;101733.00;5111018;28;20212;-78
2022/03/27 00:59:51;;;;;;;12.63;11.50;;;;;;;9.76;76.68;101721.72;5109210;28;20228;-79
2022/03/27 01:02:18;;;;;;;14.37;12.97;;;;;;;9.69;76.14;101737.31;5109254;28;20589;-78
2022/03/27 01:04:46;;;;;;;14.20;12.77;;;;;;;9.71;75.72;101737.31;5109836;28;20207;-78
2022/03/27 01:07:17;;;;;;;15.87;14.30;;;;;;;9.72;76.01;101739.06;5110966;28;20284;-79
2022/03/27 01:09:44;;;;;;;16.57;14.87;;;;;;;9.75;75.84;101741.69;5110446;28;20216;-79
2022/03/27 01:12:21;;;;;;;16.40;14.70;;;;;;;9.75;75.81;101741.69;5110108;28;20188;-78
2022/03/27 01:14:48;;;;;;;16.40;14.77;;;;;;;9.76;75.61;101739.97;5109288;28;20204;-78
2022/03/27 01:17:17;;;;;;;21.17;15.33;;;;;;;9.62;76.63;101721.63;5109767;28;20560;-78
2022/03/27 01:19:46;;;;;;;20.87;15.40;;;;;;;9.64;76.76;101714.69;5109548;28;20246;-80
2022/03/27 01:22:15;;;;;;;16.53;14.83;;;;;;;9.69;77.05;101712.97;5110394;28;20247;-79
2022/03/27 01:24:43;;;;;;;15.83;14.53;;;;;;;9.58;78.04;101680.78;5109528;28;20212;-80
2022/03/27 01:27:10;;;;;;;16.23;14.83;;;;;;;9.60;78.49;101661.66;5110038;28;20212;-80
2022/03/27 01:29:37;;;;;;;16.20;14.60;;;;;;;9.64;78.02;101672.97;5109387;28;20224;-78
2022/03/27 01:32:06;;;;;;;15.10;13.73;;;;;;;9.59;78.56;101649.47;5109532;28;20215;-78
2022/03/27 01:34:33;;;;;;;15.27;13.80;;;;;;;9.56;78.71;101651.22;5109757;28;20204;-79
2022/03/27 01:37:03;;;;;;;13.33;12.17;;;;;;;9.52;78.57;101650.34;5109952;28;20204;-79
2022/03/27 01:39:31;;;;;;;14.23;13.13;;;;;;;9.49;78.32;101655.50;5109294;28;20296;-80
2022/03/27 01:41:57;;;;;;;13.03;11.93;;;;;;;9.50;78.39;101658.13;5109472;28;20625;-80
2022/03/27 01:44:23;;;;;;;13.43;12.33;;;;;;;9.41;78.73;101649.41;5109701;28;20208;-79
2022/03/27 01:46:50;;;;;;;12.87;11.57;;;;;;;9.43;79.11;101651.13;5109726;28;20232;-79
2022/03/27 01:49:18;;;;;;;13.10;11.87;;;;;;;9.41;78.63;101650.25;5109630;28;20223;-79
2022/03/27 01:51:45;;;;;;;13.00;12.00;;;;;;;9.35;79.08;101655.44;5109940;28;20204;-79
2022/03/27 01:54:11;;;;;;;13.50;12.20;;;;;;;9.36;79.18;101651.97;5109241;28;20213;-80
2022/03/27 01:56:39;;;;;;;13.27;12.17;;;;;;;9.24;79.61;101642.38;5109857;28;20235;-78
2022/03/27 01:59:07;;;;;;;13.37;12.33;;;;;;;9.23;79.57;101630.19;5109277;28;20224;-80
2022/03/27 02:01:35;;;;;;;12.97;12.00;;;;;;;9.31;78.90;101633.69;5109252;28;20207;-79
2022/03/27 02:04:01;;;;;;;13.03;12.03;;;;;;;9.30;79.18;101642.41;5108636;28;20223;-79
2022/03/27 02:06:28;;;;;;;13.63;12.50;;;;;;;9.26;79.36;101635.44;5107584;28;20203;-79
2022/03/27 02:08:55;;;;;;;12.87;11.83;;;;;;;9.31;79.54;101638.03;5107826;28;20227;-79
2022/03/27 02:11:21;;;;;;;14.43;13.23;;;;;;;9.15;79.55;101631.88;5109655;28;20249;-79
2022/03/27 02:13:50;;;;;;;15.77;14.13;;;;;;;8.80;81.25;101597.78;5113328;28;20261;-80
2022/03/27 02:16:17;;;;;;;14.37;13.17;;;;;;;8.86;81.72;101579.59;5112307;28;20211;-77
2022/03/27 02:18:43;;;;;;;13.73;12.50;;;;;;;8.92;81.84;101572.72;5113004;28;20219;-78
2022/03/27 02:21:10;;;;;;;14.33;13.03;;;;;;;9.04;81.24;101584.03;5113404;28;20208;-79
2022/03/27 02:23:38;;;;;;;13.73;12.60;;;;;;;9.08;81.48;101593.66;5113588;28;20214;-79
2022/03/27 02:26:05;;;;;;;14.70;13.40;;;;;;;9.12;80.72;101600.63;5112677;28;20212;-79
2022/03/27 02:28:32;;;;;;;14.07;12.97;;;;;;;9.18;80.90;101611.06;5108496;28;20717;-76
2022/03/27 02:31:00;;;;;;;13.17;12.07;;;;;;;9.18;80.39;101621.50;5111321;28;20222;-80
2022/03/27 02:33:26;;;;;;;14.20;13.03;;;;;;;9.21;79.41;101636.25;5112276;28;20219;-79
2022/03/27 02:35:53;;;;;;;13.20;12.10;;;;;;;9.22;79.50;101645.81;5111099;28;20230;-79
2022/03/27 02:38:20;;;;;;;15.40;13.90;;;;;;;9.24;79.44;101647.56;5112982;28;20211;-78
2022/03/27 02:40:46;;;;;;;14.37;13.07;;;;;;;9.21;79.37;101646.69;5111918;28;20267;-80
2022/03/27 02:43:13;;;;;;;14.50;13.33;;;;;;;9.13;79.56;101637.06;5112586;28;20212;-79
2022/03/27 02:45:41;;;;;;;15.90;14.40;;;;;;;9.22;79.26;101631.06;5112383;28;20204;-79
2022/03/27 02:48:09;;;;;;;14.77;13.47;;;;;;;9.02;80.14;101636.16;5112279;28;20237;-78
2022/03/27 02:50:37;;;;;;;16.47;15.07;;;;;;;9.09;79.85;101624.88;5112327;28;20232;-79
2022/03/27 02:53:04;;;;;;;15.90;14.50;;;;;;;9.08;79.85;101620.56;5113181;28;20215;-80
2022/03/27 02:55:30;;;;;;;16.60;14.97;;;;;;;9.02;79.97;101627.44;5111707;28;20207;-79
2022/03/27 02:57:57;;;;;;;16.93;15.43;;;;;;;9.00;80.12;101616.13;5112294;28;20200;-79
2022/03/27 03:00:25;;;;;;;16.70;15.37;;;;;;;8.98;80.62;101618.75;5111645;28;20227;-79
2022/03/27 03:02:53;;;;;;;17.53;16.03;;;;;;;8.92;80.06;101618.72;5112827;28;20684;-80
2022/03/27 03:05:22;;;;;;;18.00;16.40;;;;;;;8.94;80.61;101612.66;5111541;28;20221;-79
2022/03/27 03:07:49;;;;;;;17.97;16.33;;;;;;;8.95;81.13;101613.50;5111253;28;20224;-79
2022/03/27 03:10:16;;;;;;;18.13;16.40;;;;;;;8.98;79.93;101616.16;5111217;28;20220;-80
2022/03/27 03:12:43;;;;;;;18.47;16.73;;;;;;;9.00;79.73;101631.78;5111848;28;20204;-79
2022/03/27 03:15:11;;;;;;;18.90;16.77;;;;;;;9.02;80.10;101630.94;5112210;28;20204;-79
2022/03/27 03:17:38;;;;;;;18.37;16.57;;;;;;;9.11;79.08;101648.34;5111844;28;20222;-79
2022/03/27 03:20:06;;;;;;;18.63;16.77;;;;;;;9.10;79.27;101668.31;5110975;28;20735;-78
2022/03/27 03:22:35;;;;;;;18.43;16.83;;;;;;;9.12;78.51;101676.16;5110124;28;20291;-80
2022/03/27 03:25:02;;;;;;;19.87;17.80;;;;;;;9.07;79.07;101678.72;5110885;28;20523;-79
2022/03/27 03:27:28;;;;;;;18.27;16.37;;;;;;;9.06;78.60;101666.56;5109576;28;20600;-79
2022/03/27 03:29:55;;;;;;;19.60;17.60;;;;;;;9.09;78.96;101670.91;5110167;28;20220;-78
2022/03/27 03:32:24;;;;;;;22.23;18.20;;;;;;;9.09;79.32;101657.88;5110082;28;20279;-79
2022/03/27 03:34:51;;;;;;;19.60;17.60;;;;;;;9.07;79.30;101650.06;5111840;28;20204;-79
2022/03/27 03:37:17;;;;;;;18.20;16.47;;;;;;;9.11;78.89;101663.97;5112112;28;20227;-78
2022/03/27 03:39:45;;;;;;;18.70;16.87;;;;;;;9.12;78.83;101677.03;5111571;28;20224;-79
2022/03/27 03:42:13;;;;;;;18.13;16.33;;;;;;;9.12;78.47;101674.41;5112026;28;20208;-79
2022/03/27 03:44:39;;;;;;;20.23;18.23;;;;;;;9.08;78.85;101672.66;5111310;28;20204;-78
2022/03/27 03:47:06;;;;;;;19.77;17.77;;;;;;;9.05;77.80;101680.44;5110301;28;20249;-79
2022/03/27 03:49:32;;;;;;;19.87;18.07;;;;;;;9.05;78.31;101677.81;5110827;28;20570;-79
2022/03/27 03:51:59;;;;;;;19.33;17.47;;;;;;;8.99;78.43;101674.31;5111058;28;20200;-78
2022/03/27 03:54:25;;;;;;;20.97;17.77;;;;;;;8.97;78.77;101656.06;5110291;28;20222;-80
2022/03/27 03:56:53;;;;;;;17.67;15.80;;;;;;;8.93;79.36;101646.50;5110115;28;20230;-79
2022/03/27 03:59:20;;;;;;;16.43;15.03;;;;;;;8.92;79.60;101658.66;5110079;28;20219;-78
2022/03/27 04:01:46;;;;;;;14.60;13.40;;;;;;;8.90;79.37;101659.47;5109112;28;20234;-79
2022/03/27 04:04:13;;;;;;;14.33;13.03;;;;;;;8.89;78.58;101666.41;5110688;28;20204;-79
2022/03/27 04:06:39;;;;;;;14.40;13.20;;;;;;;8.88;78.43;101669.91;5109752;28;20200;-79
2022/03/27 04:09:06;;;;;;;14.90;13.53;;;;;;;8.86;78.30;101676.81;5109598;28;20220;-79
2022/03/27 04:11:32;;;;;;;14.77;13.37;;;;;;;8.83;78.09;101684.59;5110388;28;20226;-79
2022/03/27 04:14:00;;;;;;;14.60;13.30;;;;;;;8.83;78.85;101675.94;5109952;28;20204;-79
2022/03/27 04:16:28;;;;;;;14.93;13.63;;;;;;;8.81;78.18;101681.13;5110315;28;20208;-79
2022/03/27 04:18:54;;;;;;;14.57;13.37;;;;;;;8.81;78.20;101690.66;5109724;28;20228;-79
2022/03/27 04:21:21;;;;;;;15.47;14.07;;;;;;;8.79;77.75;101690.66;5109730;28;20200;-80
2022/03/27 04:23:47;;;;;;;15.27;13.87;;;;;;;8.79;78.41;101695.84;5110086;28;20231;-78
2022/03/27 04:26:14;;;;;;;16.27;14.60;;;;;;;8.78;77.64;101701.03;5110523;28;20253;-79
2022/03/27 04:28:40;;;;;;;15.67;14.17;;;;;;;8.73;77.85;101694.06;5109089;28;20238;-80
2022/03/27 04:31:08;;;;;;;16.77;15.27;;;;;;;8.67;78.84;101691.41;5109922;28;20204;-80
2022/03/27 04:33:34;;;;;;;15.80;14.40;;;;;;;8.57;79.65;101658.34;5108767;28;20760;-79
2022/03/27 04:36:04;;;;;;;16.47;14.90;;;;;;;8.56;79.50;101648.78;5109355;28;20223;-80
2022/03/27 04:38:30;;;;;;;18.17;14.80;;;;;;;8.57;79.57;101658.34;5109302;28;20200;-80
2022/03/27 04:40:56;;;;;;;15.50;14.03;;;;;;;8.57;78.84;101657.50;5109556;28;20200;-79
2022/03/27 04:43:23;;;;;;;15.60;14.20;;;;;;;8.61;79.57;101661.84;5109236;28;20208;-79
2022/03/27 04:45:49;;;;;;;15.27;13.87;;;;;;;8.60;79.65;101658.34;5109722;28;20210;-78
2022/03/27 04:48:17;;;;;;;16.43;14.87;;;;;;;8.62;78.98;101674.91;5109478;28;20255;-78
2022/03/27 04:50:44;;;;;;;16.77;15.17;;;;;;;8.63;78.56;101675.75;5109092;28;20226;-79
2022/03/27 04:53:11;;;;;;;17.80;14.80;;;;;;;8.60;78.40;101678.31;5108771;28;20206;-79
2022/03/27 04:55:37;;;;;;;17.10;15.60;;;;;;;8.62;78.55;101676.59;5108350;28;20199;-79
2022/03/27 04:58:08;;;;;;;16.63;15.07;;;;;;;8.58;78.89;101675.69;5108877;28;20208;-79
2022/03/27 05:00:35;;;;;;;16.57;14.80;;;;;;;8.57;79.32;101667.91;5108726;28;20292;-78
2022/03/27 05:03:01;;;;;;;17.23;15.67;;;;;;;8.54;78.96;101669.63;5109449;28;20200;-79
2022/03/27 05:05:29;;;;;;;16.13;14.73;;;;;;;8.52;78.83;101671.34;5107639;28;20195;-80
2022/03/27 05:07:58;;;;;;;17.13;15.33;;;;;;;8.50;79.37;101665.25;5106213;28;20592;-78
2022/03/27 05:10:25;;;;;;;17.33;15.67;;;;;;;8.50;79.79;101673.03;5107217;28;20223;-78
2022/03/27 05:12:51;;;;;;;16.37;14.87;;;;;;;8.50;79.09;101667.84;5107278;28;20303;-79
2022/03/27 05:15:18;;;;;;;16.30;14.80;;;;;;;8.48;79.45;101664.34;5108245;28;20204;-80
2022/03/27 05:17:49;;;;;;;17.17;15.60;;;;;;;8.48;79.75;101669.56;5107353;28;20636;-79
2022/03/27 05:20:15;;;;;;;17.47;15.87;;;;;;;8.46;79.19;101667.78;5108127;28;20250;-79
2022/03/27 05:22:43;;;;;;;15.43;14.07;;;;;;;8.46;79.22;101673.88;5107747;28;20203;-79
2022/03/27 05:25:11;;;;;;;16.73;15.30;;;;;;;8.42;78.70;101686.81;5107887;28;20192;-80
2022/03/27 05:27:46;;;;;;;17.37;15.73;;;;;;;8.41;78.72;101685.06;5108916;28;20224;-79
2022/03/27 05:30:15;;;;;;;18.07;16.17;;;;;;;8.40;79.23;101678.09;5108394;28;20253;-80
2022/03/27 05:32:42;;;;;;;19.97;16.83;;;;;;;8.38;79.21;101672.88;5108424;28;20212;-80
2022/03/27 05:35:09;;;;;;;18.33;16.60;;;;;;;8.37;80.18;101663.34;5106879;28;20204;-78
2022/03/27 05:37:36;;;;;;;19.93;16.40;;;;;;;8.37;79.95;101654.66;5107853;28;20303;-79
2022/03/27 05:40:06;;;;;;;19.07;17.23;;;;;;;8.38;80.00;101664.19;5104907;28;20314;-78
2022/03/27 05:42:33;;;;;;;18.97;15.93;;;;;;;8.40;80.28;101652.06;5104571;28;20618;-78
2022/03/27 05:45:00;;;;;;;19.37;17.43;;;;;;;8.41;80.41;101648.63;5103258;28;20548;-78
2022/03/27 05:47:27;;;;;;;18.30;16.40;;;;;;;8.40;79.93;101645.13;5108776;28;20246;-77
2022/03/27 05:49:53;;;;;;;18.43;16.60;;;;;;;8.45;80.08;101648.69;5106198;28;20231;-78
2022/03/27 05:52:22;;;;;;;17.50;15.77;;;;;;;8.44;80.69;101649.53;5107963;28;20669;-78
2022/03/27 05:54:49;;;;;;;19.17;17.43;;;;;;;8.44;80.16;101646.06;5107609;28;20268;-78
2022/03/27 05:57:18;;;;;;;17.83;16.13;;;;;;;8.41;81.66;101630.41;5108825;28;20215;-77
2022/03/27 05:59:44;;;;;;;17.63;16.07;;;;;;;8.34;81.85;101614.75;5108668;28;20240;-77
2022/03/27 06:02:12;;;;;;;18.47;16.77;;;;;;;8.39;81.77;101616.53;5108959;28;20261;-78
2022/03/27 06:04:38;;;;;;;19.83;16.43;;;;;;;8.45;81.27;101625.28;5109485;28;20617;-78
2022/03/27 06:07:05;;;;;;;19.07;14.87;;;;;;;8.47;81.32;101631.38;5108379;28;20204;-78
2022/03/27 06:09:32;;;;;;;21.53;16.63;;;;;;;8.46;82.10;101621.84;5108828;28;20224;-78
2022/03/27 06:11:59;;;;;;;20.70;15.00;;;;;;;8.50;80.81;101631.41;5108326;28;20267;-77
2022/03/27 06:14:27;;;;;;;17.73;15.43;;;;;;;8.50;80.72;101647.03;5108555;28;20208;-78
2022/03/27 06:16:53;;;;;;;18.50;16.87;;;;;;;8.57;81.79;101647.06;5108729;28;20219;-78
2022/03/27 06:19:20;;;;;;;20.63;15.93;;;;;;;8.59;80.92;101647.97;5107530;28;20223;-77
2022/03/27 06:21:46;;;;;;;18.43;16.67;;;;;;;8.61;81.11;101659.25;5107683;28;20226;-78
2022/03/27 06:24:13;;;;;;;18.53;16.63;;;;;;;8.66;80.81;101666.25;5108432;28;20235;-78
2022/03/27 06:26:40;;;;;;;19.17;17.10;;;;;;;8.62;80.06;101663.59;5108258;28;20230;-77
2022/03/27 06:29:09;;;;;;;19.40;17.30;;;;;;;8.62;80.57;101668.78;5107822;28;20231;-77
2022/03/27 06:31:37;;;;;;;17.67;15.93;;;;;;;8.66;80.60;101670.56;5108891;28;20248;-78
2022/03/27 06:34:04;;;;;;;19.67;17.10;;;;;;;8.62;80.95;101655.78;5104940;28;20318;-77
2022/03/27 06:36:31;;;;;;;19.57;17.50;;;;;;;8.58;81.60;101635.78;5098805;28;20211;-77
2022/03/27 06:38:57;;;;;;;18.17;16.27;;;;;;;8.61;81.75;101633.22;5098182;28;20215;-78
2022/03/27 06:41:24;;;;;;;17.40;15.30;;;;;;;8.70;81.85;101651.50;5098539;28;20617;-77
2022/03/27 06:43:50;;;;;;;18.47;16.77;;;;;;;8.74;80.72;101664.59;5097776;28;20621;-77
2022/03/27 06:46:17;;;;;;;17.97;16.37;;;;;;;8.78;80.72;101673.28;5099589;28;20207;-78
2022/03/27 06:48:45;;;;;;;20.80;18.47;;;;;;;8.78;81.18;101673.28;5098412;28;20232;-77
2022/03/27 06:51:12;;;;;;;23.63;17.53;;;;;;;8.81;80.59;101672.44;5098760;28;20261;-78
2022/03/27 06:53:39;;;;;;;20.30;17.13;;;;;;;8.81;80.15;101682.84;5099486;28;20210;-77
2022/03/27 06:56:06;;;;;;;19.70;16.00;;;;;;;8.82;80.34;101695.88;5098161;28;20243;-78
2022/03/27 06:58:33;;;;;;;17.93;15.73;;;;;;;8.82;79.87;101701.09;5098784;28;20203;-77
2022/03/27 07:03:46;;;;;;;18.03;16.23;;;;;;;8.83;79.94;101709.78;5098665;28;20583;-77
2022/03/27 07:06:15;;;;;;;18.53;16.50;;;;;;;8.84;80.26;101701.97;5098968;28;20676;-78
2022/03/27 07:08:41;;;;;;;18.67;15.93;;;;;;;8.91;79.26;101705.50;5098485;28;20248;-77
2022/03/27 07:11:08;;;;;;;17.67;15.87;;;;;;;8.97;79.01;101712.50;5099622;28;20683;-78
2022/03/27 07:13:35;;;;;;;18.30;15.17;;;;;;;8.95;80.35;101712.47;5099431;28;20237;-77
2022/03/27 07:16:01;;;;;;;17.70;15.90;;;;;;;8.99;80.17;101702.97;5100148;28;20302;-78
2022/03/27 07:18:29;;;;;;;15.67;14.10;;;;;;;9.02;79.52;101716.00;5099457;28;20233;-77
2022/03/27 07:20:56;;;;;;;17.23;15.53;;;;;;;9.00;78.75;101734.22;5099734;28;20215;-78
2022/03/27 07:23:24;;;;;;;16.53;14.83;;;;;;;9.05;79.17;101716.91;5100231;28;20208;-78
2022/03/27 07:25:53;;;;;;;16.00;14.37;;;;;;;9.06;78.95;101723.84;5099520;28;20294;-78
2022/03/27 07:28:20;;;;;;;18.13;16.33;;;;;;;9.04;79.73;101715.16;5099213;28;20224;-78
2022/03/27 07:30:48;;;;;;;17.10;15.33;;;;;;;8.85;79.73;101708.91;5099857;28;20208;-78
2022/03/27 07:33:15;;;;;;;16.93;15.33;;;;;;;8.80;80.06;101696.72;5099216;28;20212;-79
2022/03/27 07:35:42;;;;;;;17.80;15.83;;;;;;;8.93;79.79;101707.25;5098949;28;20696;-78
2022/03/27 07:38:10;;;;;;;17.73;16.10;;;;;;;9.01;79.20;101715.13;5098732;28;20200;-77
2022/03/27 07:40:38;;;;;;;17.10;15.20;;;;;;;9.09;78.51;101741.22;5098695;28;20232;-77
2022/03/27 07:43:04;;;;;;;17.60;15.03;;;;;;;9.12;77.94;101757.78;5099323;28;20204;-77
2022/03/27 07:45:33;;;;;;;16.90;15.13;;;;;;;9.15;78.34;101754.31;5099299;28;20665;-78
2022/03/27 07:48:00;;;;;;;17.23;15.30;;;;;;;9.15;77.87;101767.34;5102332;28;20200;-78
2022/03/27 07:50:28;;;;;;;16.53;14.83;;;;;;;9.15;78.22;101762.13;5106060;28;20224;-78
2022/03/27 07:52:55;;;;;;;16.70;15.20;;;;;;;9.14;78.08;101763.00;5106040;28;20222;-76
2022/03/27 07:55:24;;;;;;;17.20;14.90;;;;;;;9.17;78.18;101769.97;5105025;28;20212;-78
2022/03/27 07:57:50;;;;;;;16.40;14.80;;;;;;;9.15;77.68;101778.63;5106194;28;20231;-79
2022/03/27 08:00:17;;;;;;;16.67;14.90;;;;;;;9.20;78.10;101783.88;5106488;28;20242;-78
2022/03/27 08:02:45;;;;;;;16.43;13.53;;;;;;;9.24;77.95;101780.44;5105765;28;20237;-79
2022/03/27 08:05:12;;;;;;;17.40;15.53;;;;;;;9.22;78.44;101768.28;5105686;28;20207;-78
2022/03/27 08:07:42;;;;;;;16.63;14.90;;;;;;;9.20;77.78;101770.88;5107747;28;20226;-79
2022/03/27 08:10:09;;;;;;;15.53;14.03;;;;;;;9.29;77.42;101780.47;5101944;28;20220;-79
2022/03/27 08:12:37;;;;;;;16.10;14.43;;;;;;;9.31;77.89;101791.78;5098388;28;20208;-78
2022/03/27 08:15:04;;;;;;;13.27;12.13;;;;;;;9.31;77.69;101777.00;5084872;28;20245;-78
2022/03/27 08:17:31;;;;;;;16.73;13.10;;;;;;;9.33;77.94;101787.44;5086380;28;20196;-78
2022/03/27 08:19:57;;;;;;;13.77;12.37;;;;;;;9.36;77.59;101786.63;5085107;28;20705;-77
2022/03/27 08:22:24;;;;;;;15.93;14.20;;;;;;;9.39;77.64;101792.72;5085989;28;20721;-78
2022/03/27 08:24:51;;;;;;;14.53;13.00;;;;;;;9.38;77.30;101801.41;5088859;28;20721;-78
2022/03/27 08:27:17;;;;;;;15.13;13.73;;;;;;;9.35;77.39;101817.00;5090405;28;20201;-78
2022/03/27 08:29:44;;;;;;;15.33;13.63;;;;;;;9.31;77.78;101800.47;5092164;28;20247;-77
2022/03/27 08:32:14;;;;;;;16.97;15.17;;;;;;;9.29;77.79;101799.56;5091609;28;20203;-78
2022/03/27 08:34:42;;;;;;;16.53;14.93;;;;;;;9.28;77.67;101804.81;5092288;28;20223;-77
2022/03/27 08:37:09;;;;;;;17.53;14.33;;;;;;;9.22;77.69;101807.34;5092372;28;20222;-79
2022/03/27 08:39:38;;;;;;;17.23;15.47;;;;;;;9.21;77.84;101805.59;5096008;28;20219;-77
2022/03/27 08:42:06;;;;;;;17.73;15.83;;;;;;;9.18;77.81;101793.41;5087596;28;20215;-77
2022/03/27 08:44:34;;;;;;;16.27;14.57;;;;;;;9.23;77.89;101793.44;5091626;28;20232;-79
2022/03/27 08:47:06;;;;;;;20.93;15.57;;;;;;;9.28;77.89;101795.25;5088351;28;20215;-78
2022/03/27 08:49:40;;;;;;;16.97;15.33;;;;;;;9.36;78.08;101800.53;5094576;28;20224;-78
2022/03/27 08:52:11;;;;;;;16.57;14.87;;;;;;;9.43;77.52;101811.84;5088882;28;20200;-78
2022/03/27 08:54:43;;;;;;;14.90;13.63;;;;;;;9.50;76.71;101819.75;5089568;28;20205;-79
2022/03/27 08:57:35;;;;;;;13.03;11.73;;;;;;;9.59;76.82;101837.16;5088689;28;20200;-78
2022/03/27 09:00:02;;;;;;;14.80;13.10;;;;;;;9.24;77.73;101823.88;5089490;28;20216;-78
2022/03/27 09:02:30;;;;;;;14.87;13.20;;;;;;;9.33;78.22;101803.94;5088526;28;20226;-77
2022/03/27 09:04:57;;;;;;;15.37;13.87;;;;;;;9.44;77.32;101813.63;5086360;28;20208;-77
2022/03/27 09:07:24;;;;;;;13.67;12.47;;;;;;;9.38;77.33;101811.81;5087525;28;20245;-77
2022/03/27 09:09:50;;;;;;;13.43;12.23;;;;;;;9.54;76.75;101823.25;5084192;28;20265;-77
2022/03/27 09:12:20;;;;;;;14.53;13.07;;;;;;;9.69;76.51;101845.94;5081306;28;20200;-77
2022/03/27 09:14:46;;;;;;;14.40;13.00;;;;;;;9.72;76.33;101865.09;5083264;28;20196;-77
2022/03/27 09:17:13;;;;;;;13.60;12.30;;;;;;;9.67;76.62;101851.16;5089819;28;20231;-78
2022/03/27 09:19:47;;;;;;;14.30;12.90;;;;;;;9.74;76.56;101857.28;5087905;28;20209;-77
2022/03/27 09:22:16;;;;;;;13.93;12.60;;;;;;;9.80;76.87;101841.69;5084756;28;20207;-77
2022/03/27 09:24:45;;;;;;;15.23;13.67;;;;;;;9.84;75.82;101858.22;5091633;28;20288;-77
2022/03/27 09:27:11;;;;;;;13.13;11.93;;;;;;;9.99;75.24;101886.13;5091991;28;20235;-78
2022/03/27 09:30:06;;;;;;;14.50;13.20;;;;;;;9.80;75.58;101872.97;5089994;28;20254;-79
2022/03/27 09:32:35;;;;;;;13.20;12.07;;;;;;;9.92;74.69;101877.41;5095078;28;20211;-80
2022/03/27 09:35:06;;;;;;;14.33;12.87;;;;;;;9.82;75.08;101884.28;5087701;28;20282;-76
2022/03/27 09:37:34;;;;;;;14.00;12.70;;;;;;;9.67;75.91;101858.97;5083755;28;20261;-77
2022/03/27 09:40:02;;;;;;;13.93;12.53;;;;;;;9.76;75.61;101852.09;5083456;28;20839;-78
2022/03/27 09:42:29;;;;;;;12.37;11.17;;;;;;;9.96;75.36;101865.25;5088333;28;20204;-77
2022/03/27 09:45:13;;;;;;;13.47;12.27;;;;;;;10.11;74.51;101894.06;5088567;28;20206;-77
2022/03/27 09:47:41;;;;;;;14.13;12.73;;;;;;;10.14;74.48;101887.09;5080285;28;20200;-76
2022/03/27 09:50:28;;;;;;;14.00;12.67;;;;;;;10.22;74.66;101889.75;5075386;28;20238;-78
2022/03/27 09:52:54;;;;;;;14.13;12.73;;;;;;;10.13;75.23;101885.38;5075258;28;20208;-77
2022/03/27 09:55:21;;;;;;;14.50;13.10;;;;;;;10.09;74.55;101880.13;5082560;28;20306;-80
2022/03/27 09:57:58;;;;;;;13.37;12.17;;;;;;;10.22;73.39;101907.16;5093626;28;20200;-79
2022/03/27 10:00:25;;;;;;;14.33;13.03;;;;;;;10.24;73.96;101916.75;5095803;28;20227;-80
2022/03/27 10:02:51;;;;;;;14.97;13.47;;;;;;;10.10;75.15;101894.91;5099093;28;20584;-78
2022/03/27 10:05:21;;;;;;;15.40;14.00;;;;;;;10.30;74.68;101875.06;5098146;28;20268;-80
2022/03/27 10:07:48;;;;;;;15.17;13.87;;;;;;;10.47;73.77;101903.00;5096427;28;20193;-79
2022/03/27 10:10:16;;;;;;;17.87;13.97;;;;;;;10.57;72.77;101930.03;5101204;28;20231;-80
2022/03/27 10:12:45;;;;;;;13.93;12.53;;;;;;;10.48;72.92;101930.84;5099547;28;20200;-78
2022/03/27 10:15:14;;;;;;;14.70;13.30;;;;;;;10.58;72.15;101942.22;5113955;28;20214;-78
2022/03/27 10:17:43;;;;;;;14.73;13.43;;;;;;;10.62;72.21;101951.81;5103483;28;20204;-79
2022/03/27 10:20:12;;;;;;;16.00;14.03;;;;;;;10.64;71.97;101948.31;5104468;28;20874;-80
2022/03/27 10:22:42;;;;;;;17.83;15.00;;;;;;;10.62;72.00;101944.81;5097084;28;20195;-78
2022/03/27 10:25:11;;;;;;;15.73;14.23;;;;;;;10.75;71.99;101932.72;5096433;28;20207;-79
2022/03/27 10:27:40;;;;;;;17.03;14.53;;;;;;;10.87;70.95;101958.03;5097777;28;20197;-79
2022/03/27 10:30:08;;;;;;;14.77;13.47;;;;;;;10.83;71.84;101959.75;5098824;28;20238;-82
2022/03/27 10:32:36;;;;;;;14.30;12.87;;;;;;;10.54;72.37;101946.53;5093190;28;20208;-80
2022/03/27 10:35:15;;;;;;;14.13;12.83;;;;;;;10.16;73.59;101901.91;5088311;28;20200;-79
2022/03/27 10:37:53;;;;;;;14.10;12.80;;;;;;;9.85;75.28;101868.69;5087338;28;20207;-80
2022/03/27 10:40:24;;;;;;;14.10;12.60;;;;;;;9.73;75.80;101832.94;5088978;28;20213;-79
2022/03/27 10:42:58;;;;;;;15.27;13.67;;;;;;;9.72;76.95;101791.22;5087815;28;20201;-79
2022/03/27 10:45:25;;;;;;;14.53;13.10;;;;;;;10.00;76.95;101778.34;5087924;28;20262;-79
2022/03/27 10:48:13;;;;;;;14.90;13.40;;;;;;;10.09;76.98;101787.09;5088757;28;20196;-80
2022/03/27 10:50:51;;;;;;;16.73;12.40;;;;;;;10.37;76.03;101799.41;5089629;28;20717;-79
2022/03/27 10:53:21;;;;;;;14.27;12.97;;;;;;;10.81;74.40;101843.06;5090307;28;20232;-79
2022/03/27 10:55:52;;;;;;;13.40;12.13;;;;;;;10.65;73.44;101886.53;5096511;28;20207;-82
2022/03/27 10:58:30;;;;;;;13.60;12.33;;;;;;;11.03;74.05;101857.91;5099116;28;20650;-78
2022/03/27 11:00:58;;;;;;;13.33;12.03;;;;;;;11.52;72.24;101880.66;5094673;28;20200;-81
2022/03/27 11:03:48;;;;;;;11.73;10.73;;;;;;;11.96;70.46;101949.56;5095477;28;20217;-81
2022/03/27 11:06:29;;;;;;;13.77;12.57;;;;;;;12.19;68.79;101989.69;5101406;28;20225;-81
2022/03/27 11:08:59;;;;;;;13.67;12.47;;;;;;;12.57;68.25;102009.72;5092778;28;20215;-84
2022/03/27 11:11:54;;;;;;;13.47;12.17;;;;;;;12.80;66.10;102048.94;5096548;28;20246;-80
2022/03/27 11:14:53;;;;;;;13.70;12.30;;;;;;;12.69;65.92;102090.03;5089999;28;20190;-81
2022/03/27 11:17:35;;;;;;;12.83;11.73;;;;;;;12.67;65.90;102099.66;5087593;28;20249;-80
2022/03/27 11:20:03;;;;;;;14.00;12.60;;;;;;;12.54;65.81;102085.66;5091632;28;20221;-81
2022/03/27 11:22:54;;;;;;;13.83;12.63;;;;;;;12.91;64.88;102086.50;5100083;28;20273;-82
2022/03/27 11:25:45;;;;;;;14.07;12.77;;;;;;;13.08;63.82;102133.66;5079495;28;20200;-84